createdAt,value
2023-10-25T00:03:42.319Z,11.80
2023-10-25T00:08:46.248Z,11.80
2023-10-25T00:13:51.087Z,11.80
2023-10-25T00:18:56.238Z,11.90
2023-10-25T00:24:00.048Z,11.80
2023-10-25T00:29:04.164Z,11.80
2023-10-25T00:34:09.257Z,11.80
2023-10-25T00:39:13.231Z,12.00
2023-10-25T00:44:16.932Z,11.90
2023-10-25T00:49:22.158Z,12.00
2023-10-25T00:54:26.425Z,12.00
2023-10-25T00:59:32.134Z,12.00
2023-10-25T01:04:37.569Z,11.90
2023-10-25T01:09:41.647Z,12.10
2023-10-25T01:14:45.693Z,12.00
2023-10-25T01:19:50.834Z,11.90
2023-10-25T01:24:55.925Z,12.00
2023-10-25T01:29:59.755Z,11.90
2023-10-25T01:35:03.586Z,12.00
2023-10-25T01:40:10.343Z,12.10
2023-10-25T01:45:14.173Z,12.10
2023-10-25T01:50:19.345Z,12.20
2023-10-25T01:55:25.902Z,12.10
2023-10-25T02:00:29.937Z,12.00
2023-10-25T02:05:33.758Z,12.10
2023-10-25T02:10:39.569Z,11.90
2023-10-25T02:15:43.309Z,12.10
2023-10-25T02:20:47.291Z,12.10
2023-10-25T02:25:52.400Z,12.10
2023-10-25T02:30:56.103Z,12.10
2023-10-25T02:35:59.999Z,12.10
2023-10-25T02:41:05.479Z,11.90
2023-10-25T02:46:10.453Z,11.90
2023-10-25T02:51:14.619Z,11.90
2023-10-25T02:56:20.889Z,11.80
2023-10-25T03:01:26.041Z,11.70
2023-10-25T03:06:29.857Z,11.70
2023-10-25T03:11:35.806Z,11.60
2023-10-25T03:16:39.887Z,11.60
2023-10-25T03:21:43.712Z,11.50
2023-10-25T03:26:49.234Z,11.50
2023-10-25T03:31:54.901Z,11.50
2023-10-25T03:36:58.743Z,11.50
2023-10-25T03:42:04.933Z,11.50
2023-10-25T03:47:08.675Z,11.50
2023-10-25T03:52:13.660Z,11.30
2023-10-25T03:57:18.812Z,11.30
2023-10-25T04:02:22.532Z,11.20
2023-10-25T04:07:26.304Z,11.30
2023-10-25T04:12:32.015Z,11.10
2023-10-25T04:17:35.878Z,10.70
2023-10-25T04:22:39.640Z,10.50
2023-10-25T04:27:45.518Z,10.40
2023-10-25T04:32:49.262Z,10.10
2023-10-25T04:37:54.209Z,9.80
2023-10-25T04:42:59.415Z,9.70
2023-10-25T04:48:03.682Z,9.50
2023-10-25T04:53:08.082Z,9.50
2023-10-25T04:58:13.364Z,9.60
2023-10-25T05:03:17.264Z,9.50
2023-10-25T05:08:21.678Z,9.60
2023-10-25T05:13:27.553Z,9.50
2023-10-25T05:18:32.612Z,9.30
2023-10-25T05:23:36.815Z,9.20
2023-10-25T05:28:42.707Z,9.20
2023-10-25T05:33:46.927Z,9.00
2023-10-25T05:38:51.627Z,8.90
2023-10-25T05:44:04.743Z,8.80
2023-10-25T05:49:09.468Z,8.60
2023-10-25T05:54:14.640Z,8.60
2023-10-25T05:59:20.838Z,8.60
2023-10-25T06:04:25.574Z,8.60
2023-10-25T06:09:30.185Z,8.70
2023-10-25T06:14:35.542Z,8.90
2023-10-25T06:19:38.953Z,9.00
2023-10-25T06:24:42.970Z,9.10
2023-10-25T06:29:49.156Z,9.10
2023-10-25T06:34:53.103Z,9.20
2023-10-25T06:39:57.612Z,9.40
2023-10-25T06:45:03.640Z,9.60
2023-10-25T06:50:09.215Z,9.80
2023-10-25T06:55:15.899Z,10.00
2023-10-25T07:00:23.341Z,10.10
2023-10-25T07:05:27.519Z,10.30
2023-10-25T07:10:32.698Z,10.40
2023-10-25T07:15:38.037Z,10.40
2023-10-25T07:20:41.637Z,10.50
2023-10-25T07:25:45.808Z,10.60
2023-10-25T07:30:51.481Z,10.70
2023-10-25T07:35:55.357Z,10.70
2023-10-25T07:40:59.179Z,10.70
2023-10-25T07:46:05.377Z,10.80
2023-10-25T07:51:09.116Z,11.00
2023-10-25T08:01:21.415Z,11.40
2023-10-25T08:06:25.354Z,11.40
2023-10-25T08:11:29.417Z,11.70
2023-10-25T08:16:40.014Z,11.90
2023-10-25T08:21:43.789Z,11.90
2023-10-25T08:26:47.559Z,11.90
2023-10-25T08:31:54.035Z,12.00
2023-10-25T08:36:58.532Z,12.10
2023-10-25T08:42:03.696Z,12.10
2023-10-25T08:47:09.822Z,12.30
2023-10-25T08:52:14.981Z,12.50
2023-10-25T08:57:19.558Z,12.80
2023-10-25T09:02:24.766Z,12.90
2023-10-25T09:07:30.330Z,12.90
2023-10-25T09:12:34.552Z,12.80
2023-10-25T09:17:40.925Z,12.90
2023-10-25T09:22:45.190Z,12.70
2023-10-25T09:27:48.957Z,12.30
2023-10-25T09:32:54.276Z,12.50
2023-10-25T09:37:58.195Z,12.60
2023-10-25T09:43:10.182Z,12.80
2023-10-25T09:48:17.613Z,12.90
2023-10-25T09:53:27.692Z,13.10
2023-10-25T09:58:34.553Z,13.20
2023-10-25T10:03:47.628Z,13.40
2023-10-25T10:08:57.923Z,13.50
2023-10-25T10:14:31.069Z,13.80
2023-10-25T10:19:39.379Z,13.10
2023-10-25T10:24:45.396Z,13.50
2023-10-25T10:29:50.148Z,13.30
2023-10-25T10:34:58.737Z,13.30
2023-10-25T10:40:15.564Z,13.30
2023-10-25T10:45:21.042Z,13.40
2023-10-25T10:50:27.245Z,13.30
2023-10-25T10:55:31.603Z,13.60
2023-10-25T11:00:35.677Z,13.30
2023-10-25T11:05:40.962Z,13.40
2023-10-25T11:10:45.014Z,13.50
2023-10-25T11:15:49.083Z,13.30
2023-10-25T11:20:54.292Z,13.60
2023-10-25T11:25:57.982Z,13.60
2023-10-25T11:31:03.556Z,13.80
2023-10-25T11:36:08.743Z,14.00
2023-10-25T11:41:12.563Z,13.80
2023-10-25T11:46:16.916Z,14.20
2023-10-25T11:51:22.046Z,14.70
2023-10-25T11:56:25.732Z,14.60
2023-10-25T12:01:29.584Z,14.50
2023-10-25T12:06:36.342Z,14.90
2023-10-25T12:11:40.797Z,15.70
2023-10-25T12:16:46.786Z,15.70
2023-10-25T12:22:01.252Z,15.30
2023-10-25T12:27:06.308Z,15.00
2023-10-25T12:32:10.303Z,15.30
2023-10-25T12:37:15.551Z,16.20
2023-10-25T12:42:19.213Z,16.80
2023-10-25T12:47:23.692Z,17.40
2023-10-25T12:52:28.834Z,17.70
2023-10-25T12:57:32.404Z,17.80
2023-10-25T13:02:36.238Z,17.20
2023-10-25T13:07:44.256Z,17.20
2023-10-25T13:12:48.289Z,17.60
2023-10-25T13:17:52.090Z,16.80
2023-10-25T13:23:00.869Z,17.30
2023-10-25T13:28:05.070Z,17.50
2023-10-25T13:33:09.323Z,16.80
2023-10-25T13:38:14.750Z,16.20
2023-10-25T13:43:18.763Z,15.90
2023-10-25T13:48:22.602Z,16.10
2023-10-25T13:53:28.158Z,15.30
2023-10-25T13:58:32.360Z,15.10
2023-10-25T14:03:36.146Z,15.10
2023-10-25T14:08:41.360Z,14.70
2023-10-25T14:13:45.591Z,14.70
2023-10-25T14:18:49.688Z,14.20
2023-10-25T14:23:54.903Z,13.70
2023-10-25T14:28:58.722Z,13.60
2023-10-25T14:34:02.737Z,13.40
2023-10-25T14:39:09.222Z,13.10
2023-10-25T14:44:13.287Z,13.00
2023-10-25T14:49:17.416Z,13.10
2023-10-25T14:54:22.562Z,12.90
2023-10-25T14:59:33.032Z,12.40
2023-10-25T15:04:36.837Z,12.00
2023-10-25T15:09:44.488Z,11.60
2023-10-25T15:14:53.724Z,11.30
2023-10-25T15:19:58.119Z,11.00
2023-10-25T15:25:04.610Z,10.70
2023-10-25T15:30:11.055Z,10.60
2023-10-25T15:35:15.338Z,10.50
2023-10-25T15:40:25.024Z,10.20
2023-10-25T15:45:33.675Z,9.90
2023-10-25T15:50:37.597Z,9.90
2023-10-25T15:55:42.924Z,9.80
2023-10-25T16:00:46.782Z,9.80
2023-10-25T16:05:50.584Z,9.60
2023-10-25T16:10:57.813Z,9.60
2023-10-25T16:16:04.422Z,9.50
2023-10-25T16:21:08.638Z,9.50
2023-10-25T16:26:15.261Z,9.80
2023-10-25T16:31:21.412Z,9.80
2023-10-25T16:36:25.624Z,10.00
2023-10-25T16:41:30.992Z,10.10
2023-10-25T16:46:34.654Z,10.20
2023-10-25T16:51:38.454Z,10.10
2023-10-25T16:56:43.828Z,10.10
2023-10-25T17:01:47.950Z,10.10
2023-10-25T17:06:51.910Z,10.00
2023-10-25T17:11:57.376Z,10.00
2023-10-25T17:17:01.295Z,9.90
2023-10-25T17:22:05.096Z,9.90
2023-10-25T17:27:11.174Z,9.90
2023-10-25T17:32:15.511Z,9.70
2023-10-25T17:37:19.147Z,9.70
2023-10-25T17:42:24.356Z,9.60
2023-10-25T17:47:29.374Z,9.60
2023-10-25T17:52:43.574Z,9.50
2023-10-25T17:57:51.004Z,9.40
2023-10-25T18:02:54.802Z,9.30
2023-10-25T18:07:58.724Z,9.30
2023-10-25T18:13:03.775Z,9.40
2023-10-25T18:18:08.598Z,9.40
2023-10-25T18:23:12.966Z,9.40
2023-10-25T18:28:18.025Z,9.50
2023-10-25T18:33:23.406Z,9.50
2023-10-25T18:38:27.394Z,9.50
2023-10-25T18:43:32.908Z,9.50
2023-10-25T18:48:36.576Z,9.50
2023-10-25T18:53:40.399Z,9.60
2023-10-25T18:58:45.966Z,9.60
2023-10-25T19:03:50.338Z,9.60
2023-10-25T19:08:55.443Z,9.60
2023-10-25T19:14:00.821Z,9.60
2023-10-25T19:19:05.181Z,9.60
2023-10-25T19:24:09.343Z,9.60
2023-10-25T19:29:15.506Z,9.60
2023-10-25T19:34:19.909Z,9.60
2023-10-25T19:39:23.531Z,9.60
2023-10-25T19:44:29.163Z,9.70
2023-10-25T19:49:33.175Z,9.60
2023-10-25T19:54:37.510Z,9.70
2023-10-25T19:59:44.327Z,9.70
2023-10-25T20:04:48.169Z,9.70
2023-10-25T20:09:52.264Z,9.70
2023-10-25T20:14:58.492Z,9.60
2023-10-25T20:20:02.233Z,9.80
2023-10-25T20:25:07.220Z,9.80
2023-10-25T20:30:12.911Z,9.80
2023-10-25T20:35:16.844Z,9.70
2023-10-25T20:40:20.558Z,9.80
2023-10-25T20:45:25.582Z,9.70
2023-10-25T20:50:29.726Z,9.70
2023-10-25T20:55:33.980Z,9.70
2023-10-25T21:00:41.893Z,9.70
2023-10-25T21:05:45.784Z,9.80
2023-10-25T21:10:50.149Z,9.90
2023-10-25T21:15:55.463Z,9.90
2023-10-25T21:20:59.689Z,9.90
2023-10-25T21:26:07.535Z,10.00
2023-10-25T21:31:12.827Z,10.00
2023-10-25T21:36:17.964Z,10.00
2023-10-25T21:41:21.725Z,10.00
2023-10-25T21:46:27.311Z,10.00
2023-10-25T21:51:31.206Z,10.00
2023-10-25T21:56:34.940Z,10.10
2023-10-25T22:01:46.471Z,10.20
2023-10-25T22:06:50.707Z,10.00
2023-10-25T22:11:55.007Z,10.00
2023-10-25T22:17:00.822Z,10.10
2023-10-25T22:22:04.905Z,10.00
2023-10-25T22:27:09.793Z,10.00
2023-10-25T22:32:15.262Z,10.00
2023-10-25T22:37:18.894Z,10.00
2023-10-25T22:42:22.595Z,10.00
2023-10-25T22:47:28.087Z,10.00
2023-10-25T22:52:31.778Z,9.90
2023-10-25T22:57:35.415Z,9.90
2023-10-25T23:02:40.655Z,9.90
2023-10-25T23:07:44.832Z,9.90
2023-10-25T23:12:48.459Z,9.90
2023-10-25T23:17:53.476Z,9.90
2023-10-25T23:22:57.184Z,9.90
2023-10-25T23:28:01.014Z,9.80
2023-10-25T23:33:06.209Z,9.90
2023-10-25T23:38:09.860Z,9.90
2023-10-25T23:43:13.529Z,10.00
2023-10-25T23:48:18.991Z,10.00
2023-10-25T23:53:23.359Z,10.00
2023-10-25T23:58:27.099Z,10.00
